createdAt,value
2019-03-18T00:00:17.681Z,2.87
2019-03-18T00:02:46.077Z,2.37
2019-03-18T00:05:14.478Z,1.97
2019-03-18T00:07:42.909Z,5.07
2019-03-18T00:10:11.391Z,3.57
2019-03-18T00:12:39.790Z,3.67
2019-03-18T00:15:09.809Z,3.80
2019-03-18T00:17:38.318Z,3.53
2019-03-18T00:20:09.182Z,2.90
2019-03-18T00:22:37.706Z,2.70
2019-03-18T00:25:08.338Z,3.73
2019-03-18T00:27:36.734Z,4.30
2019-03-18T00:30:10.907Z,3.10
2019-03-18T00:32:39.338Z,3.13
2019-03-18T00:35:07.877Z,2.23
2019-03-18T00:37:36.323Z,2.50
2019-03-18T00:40:08.039Z,6.93
2019-03-18T00:42:36.442Z,2.57
2019-03-18T00:45:14.856Z,3.83
2019-03-18T00:47:37.099Z,3.23
2019-03-18T00:50:08.046Z,4.27
2019-03-18T00:52:36.487Z,3.90
2019-03-18T00:55:07.290Z,3.87
2019-03-18T00:57:35.691Z,4.90
2019-03-18T01:00:16.330Z,4.93
2019-03-18T01:02:44.954Z,5.83
2019-03-18T01:05:13.977Z,2.77
2019-03-18T01:07:42.452Z,3.10
2019-03-18T01:10:17.725Z,5.53
2019-03-18T01:12:46.131Z,3.03
2019-03-18T01:15:26.822Z,2.93
2019-03-18T01:17:44.974Z,5.47
2019-03-18T01:20:14.774Z,3.67
2019-03-18T01:22:43.174Z,5.83
2019-03-18T01:25:11.940Z,3.33
2019-03-18T01:27:40.813Z,6.07
2019-03-18T01:30:13.789Z,3.93
2019-03-18T01:32:42.318Z,3.90
2019-03-18T01:35:10.964Z,4.13
2019-03-18T01:37:39.512Z,4.73
2019-03-18T01:40:12.489Z,5.07
2019-03-18T01:42:41.036Z,5.13
2019-03-18T01:45:10.771Z,5.53
2019-03-18T01:47:39.266Z,5.47
2019-03-18T01:50:16.810Z,3.67
2019-03-18T01:52:45.243Z,4.83
2019-03-18T01:55:13.814Z,3.27
2019-03-18T01:57:42.269Z,2.30
2019-03-18T02:00:14.111Z,4.23
2019-03-18T02:02:42.568Z,4.13
2019-03-18T02:05:11.336Z,3.00
2019-03-18T02:07:40.095Z,5.63
2019-03-18T02:10:15.582Z,3.13
2019-03-18T02:12:43.989Z,4.40
2019-03-18T02:15:14.440Z,4.17
2019-03-18T02:17:43.166Z,3.93
2019-03-18T02:20:19.590Z,4.73
2019-03-18T02:22:47.926Z,3.30
2019-03-18T02:25:16.319Z,2.70
2019-03-18T02:27:44.753Z,3.47
2019-03-18T02:30:15.881Z,4.30
2019-03-18T02:32:44.262Z,6.60
2019-03-18T02:35:12.696Z,3.50
2019-03-18T02:37:41.096Z,6.63
2019-03-18T02:40:10.546Z,3.40
2019-03-18T02:42:39.119Z,7.10
2019-03-18T02:45:11.979Z,4.53
2019-03-18T02:47:40.373Z,3.20
2019-03-18T02:50:09.606Z,5.80
2019-03-18T02:52:38.331Z,4.47
2019-03-18T02:55:07.976Z,4.83
2019-03-18T02:57:36.566Z,5.80
2019-03-18T03:00:08.439Z,5.00
2019-03-18T03:02:36.835Z,3.80
2019-03-18T03:05:07.199Z,3.27
2019-03-18T03:07:35.599Z,6.17
2019-03-18T03:10:04.841Z,3.80
2019-03-18T03:12:33.262Z,5.23
2019-03-18T03:15:01.665Z,4.23
2019-03-18T03:17:30.059Z,5.43
2019-03-18T03:19:58.490Z,5.40
2019-03-18T03:22:26.881Z,4.53
2019-03-18T03:24:55.338Z,4.27
2019-03-18T03:27:23.950Z,5.03
2019-03-18T03:29:52.351Z,5.03
2019-03-18T03:32:20.749Z,5.53
2019-03-18T03:34:49.184Z,4.13
2019-03-18T03:37:17.579Z,7.93
2019-03-18T03:39:45.963Z,6.43
2019-03-18T03:42:14.392Z,5.50
2019-03-18T03:44:42.806Z,3.90
2019-03-18T03:47:11.198Z,4.80
2019-03-18T03:49:39.623Z,3.00
2019-03-18T03:52:08.022Z,4.73
2019-03-18T03:54:36.429Z,4.63
2019-03-18T03:57:04.860Z,5.93
2019-03-18T03:59:33.524Z,3.47
2019-03-18T04:02:01.925Z,5.40
2019-03-18T04:04:30.335Z,5.30
2019-03-18T04:06:58.809Z,4.47
2019-03-18T04:09:27.678Z,2.50
2019-03-18T04:11:56.081Z,3.47
2019-03-18T04:14:24.494Z,2.83
2019-03-18T04:17:01.862Z,4.60
2019-03-18T04:19:23.134Z,3.63
2019-03-18T04:21:51.529Z,5.87
2019-03-18T04:24:19.965Z,5.10
2019-03-18T04:26:48.369Z,5.27
2019-03-18T04:29:16.757Z,4.00
2019-03-18T04:31:45.195Z,5.00
2019-03-18T04:34:13.614Z,6.27
2019-03-18T04:36:41.988Z,4.07
2019-03-18T04:39:10.802Z,4.67
2019-03-18T04:41:39.211Z,3.30
2019-03-18T04:44:07.751Z,4.60
2019-03-18T04:46:36.228Z,4.60
2019-03-18T04:49:04.673Z,3.90
2019-03-18T04:51:33.074Z,2.67
2019-03-18T04:54:01.509Z,3.13
2019-03-18T04:56:29.903Z,3.30
2019-03-18T04:58:58.326Z,4.70
2019-03-18T05:01:27.030Z,4.03
2019-03-18T05:03:55.426Z,4.43
2019-03-18T05:06:23.827Z,6.30
2019-03-18T05:08:52.270Z,7.07
2019-03-18T05:11:20.670Z,3.37
2019-03-18T05:13:49.225Z,5.80
2019-03-18T05:16:17.924Z,4.90
2019-03-18T05:18:46.319Z,3.90
2019-03-18T05:21:14.723Z,5.60
2019-03-18T05:23:43.161Z,6.03
2019-03-18T05:26:11.559Z,3.03
2019-03-18T05:28:39.956Z,6.43
2019-03-18T05:31:08.381Z,2.93
2019-03-18T05:33:36.778Z,4.33
2019-03-18T05:36:05.228Z,3.93
2019-03-18T05:38:33.629Z,3.33
2019-03-18T05:41:02.054Z,7.03
2019-03-18T05:43:30.503Z,4.53
2019-03-18T05:45:58.895Z,3.10
2019-03-18T05:48:27.298Z,7.97
2019-03-18T05:50:55.731Z,2.87
2019-03-18T05:53:24.122Z,4.80
2019-03-18T05:55:52.904Z,6.33
2019-03-18T05:58:21.295Z,9.00
2019-03-18T06:00:49.735Z,5.13
2019-03-18T06:03:18.734Z,5.13
2019-03-18T06:05:47.130Z,5.63
2019-03-18T06:08:15.523Z,3.80
2019-03-18T06:10:43.981Z,3.67
2019-03-18T06:13:12.392Z,7.03
2019-03-18T06:15:40.807Z,4.00
2019-03-18T06:18:09.251Z,5.60
2019-03-18T06:20:37.642Z,3.47
2019-03-18T06:23:06.042Z,5.90
2019-03-18T06:25:34.496Z,4.17
2019-03-18T06:28:02.891Z,9.67
2019-03-18T06:31:03.256Z,8.47
2019-03-18T06:33:31.650Z,10.47
2019-03-18T06:36:00.046Z,13.67
2019-03-18T06:38:28.470Z,21.57
2019-03-18T06:40:56.975Z,16.77
2019-03-18T06:43:25.374Z,8.00
2019-03-18T06:45:53.877Z,7.87
2019-03-18T06:48:22.284Z,8.33
2019-03-18T06:50:50.678Z,5.47
2019-03-18T06:53:19.102Z,10.67
2019-03-18T06:55:47.507Z,6.20
2019-03-18T06:58:15.906Z,10.40
2019-03-18T07:00:44.326Z,5.77
2019-03-18T07:03:12.726Z,8.53
2019-03-18T07:05:41.189Z,11.63
2019-03-18T07:08:09.586Z,9.00
2019-03-18T07:10:38.068Z,10.27
2019-03-18T07:13:06.499Z,15.37
2019-03-18T07:15:34.899Z,6.23
2019-03-18T07:18:03.342Z,7.40
2019-03-18T07:20:31.734Z,5.73
2019-03-18T07:23:00.170Z,8.63
2019-03-18T07:25:28.618Z,9.63
2019-03-18T07:27:57.087Z,7.80
2019-03-18T07:30:25.480Z,6.97
2019-03-18T07:32:54.334Z,6.53
2019-03-18T07:35:22.841Z,6.90
2019-03-18T07:37:51.246Z,10.07
2019-03-18T07:40:19.679Z,8.83
2019-03-18T07:42:48.074Z,9.40
2019-03-18T07:45:16.544Z,12.80
2019-03-18T07:47:45.108Z,9.33
2019-03-18T07:50:14.745Z,9.43
2019-03-18T07:52:43.133Z,11.97
2019-03-18T07:55:11.801Z,8.77
2019-03-18T07:57:40.203Z,10.03
2019-03-18T08:00:15.507Z,10.03
2019-03-18T08:02:43.909Z,9.90
2019-03-18T08:05:12.389Z,10.10
2019-03-18T08:07:40.805Z,7.23
2019-03-18T08:10:11.824Z,8.00
2019-03-18T08:12:40.207Z,12.83
2019-03-18T08:15:10.280Z,9.60
2019-03-18T08:17:38.681Z,8.53
2019-03-18T08:20:09.602Z,15.40
2019-03-18T08:22:38.094Z,8.17
2019-03-18T08:25:07.963Z,11.10
2019-03-18T08:27:36.362Z,10.10
2019-03-18T08:30:15.586Z,10.50
2019-03-18T08:32:44.015Z,8.40
2019-03-18T08:35:12.454Z,7.73
2019-03-18T08:37:41.179Z,7.27
2019-03-18T08:40:10.814Z,7.10
2019-03-18T08:42:39.212Z,8.77
2019-03-18T08:45:14.956Z,8.03
2019-03-18T08:47:43.357Z,9.13
2019-03-18T08:50:12.854Z,7.00
2019-03-18T08:52:41.518Z,8.87
2019-03-18T08:55:10.919Z,8.20
2019-03-18T08:57:39.360Z,12.77
2019-03-18T09:00:13.094Z,13.23
2019-03-18T09:02:41.529Z,9.30
2019-03-18T09:05:10.463Z,10.27
2019-03-18T09:07:38.952Z,7.50
2019-03-18T09:10:12.761Z,11.63
2019-03-18T09:12:41.150Z,6.77
2019-03-18T09:15:12.904Z,7.60
2019-03-18T09:17:41.472Z,7.03
2019-03-18T09:20:14.617Z,6.33
2019-03-18T09:22:43.094Z,9.27
2019-03-18T09:25:12.133Z,11.73
2019-03-18T09:27:40.769Z,10.13
2019-03-18T09:30:17.193Z,10.10
2019-03-18T09:32:45.597Z,10.53
2019-03-18T09:35:14.011Z,12.50
2019-03-18T09:37:42.442Z,8.50
2019-03-18T09:40:14.733Z,9.20
2019-03-18T09:42:43.146Z,6.00
2019-03-18T09:45:14.203Z,6.83
2019-03-18T09:47:42.614Z,8.60
2019-03-18T09:50:11.851Z,4.97
2019-03-18T09:52:40.290Z,4.60
2019-03-18T09:55:09.930Z,3.13
2019-03-18T09:57:38.330Z,4.50
2019-03-18T10:00:12.247Z,2.87
2019-03-18T10:02:41.007Z,3.53
2019-03-18T10:05:09.579Z,2.13
2019-03-18T10:07:38.051Z,3.93
2019-03-18T10:10:14.304Z,2.13
2019-03-18T10:12:42.997Z,5.13
2019-03-18T10:15:16.150Z,3.43
2019-03-18T10:17:44.622Z,2.40
2019-03-18T10:20:13.450Z,2.53
2019-03-18T10:22:41.908Z,4.07
2019-03-18T10:25:10.610Z,4.07
2019-03-18T10:27:39.361Z,2.40
2019-03-18T10:30:14.705Z,6.07
2019-03-18T10:32:43.283Z,4.20
2019-03-18T10:35:11.807Z,7.67
2019-03-18T10:37:40.218Z,4.30
2019-03-18T10:40:10.655Z,4.87
2019-03-18T10:42:39.165Z,4.87
2019-03-18T10:45:12.568Z,9.10
2019-03-18T10:47:40.957Z,4.70
2019-03-18T10:50:11.890Z,4.77
2019-03-18T10:52:40.288Z,4.10
2019-03-18T10:55:10.121Z,5.70
2019-03-18T10:57:38.514Z,5.07
2019-03-18T11:00:17.613Z,5.57
2019-03-18T11:02:46.006Z,5.97
2019-03-18T11:05:15.021Z,2.00
2019-03-18T11:07:43.839Z,3.57
2019-03-18T11:10:13.732Z,2.97
2019-03-18T11:12:42.253Z,4.07
2019-03-18T11:15:20.975Z,3.60
2019-03-18T11:17:49.446Z,4.07
2019-03-18T11:20:17.846Z,5.63
2019-03-18T11:22:46.271Z,3.53
2019-03-18T11:25:15.506Z,3.30
2019-03-18T11:27:44.080Z,5.90
2019-03-18T11:30:14.713Z,6.15
2019-03-18T11:32:43.193Z,4.17
2019-03-18T11:35:11.586Z,5.63
2019-03-18T11:37:40.022Z,6.57
2019-03-18T11:40:11.818Z,5.77
2019-03-18T11:42:40.220Z,4.20
2019-03-18T11:45:13.882Z,5.10
2019-03-18T11:47:42.281Z,6.20
2019-03-18T11:50:15.150Z,7.77
2019-03-18T11:52:43.557Z,3.47
2019-03-18T11:55:14.659Z,7.43
2019-03-18T11:57:43.326Z,7.17
2019-03-18T12:00:17.446Z,4.67
2019-03-18T12:02:45.845Z,6.03
2019-03-18T12:05:26.007Z,7.13
2019-03-18T12:07:54.411Z,6.63
2019-03-18T12:10:25.502Z,5.77
2019-03-18T12:12:53.375Z,4.97
2019-03-18T12:15:28.263Z,4.33
2019-03-18T12:17:56.669Z,6.37
2019-03-18T12:20:26.003Z,7.17
2019-03-18T12:22:54.610Z,10.33
2019-03-18T12:25:23.010Z,9.07
2019-03-18T12:27:51.459Z,3.73
2019-03-18T12:30:24.166Z,8.30
2019-03-18T12:32:52.643Z,6.13
2019-03-18T12:35:21.067Z,6.93
2019-03-18T12:37:49.455Z,7.77
2019-03-18T12:40:18.266Z,7.70
2019-03-18T12:42:47.018Z,6.80
2019-03-18T12:45:22.445Z,5.60
2019-03-18T12:47:50.837Z,11.77
2019-03-18T12:50:36.881Z,4.30
2019-03-18T12:52:53.691Z,5.20
2019-03-18T12:55:22.130Z,5.23
2019-03-18T12:57:50.649Z,4.17
2019-03-18T13:00:35.373Z,4.93
2019-03-18T13:03:04.101Z,5.53
2019-03-18T13:05:32.573Z,4.57
2019-03-18T13:08:01.090Z,6.70
2019-03-18T13:10:29.482Z,5.43
2019-03-18T13:12:57.970Z,4.50
2019-03-18T13:15:26.393Z,6.70
2019-03-18T13:17:54.788Z,6.53
2019-03-18T13:20:23.570Z,6.63
2019-03-18T13:22:53.973Z,5.23
2019-03-18T13:25:22.222Z,6.80
2019-03-18T13:27:50.625Z,5.13
2019-03-18T13:30:20.302Z,7.10
2019-03-18T13:32:48.698Z,5.73
2019-03-18T13:35:17.178Z,4.43
2019-03-18T13:37:45.608Z,5.73
2019-03-18T13:40:20.429Z,4.43
2019-03-18T13:42:48.869Z,6.03
2019-03-18T13:45:18.909Z,5.10
2019-03-18T13:47:47.585Z,6.07
2019-03-18T13:50:17.155Z,5.60
2019-03-18T13:52:45.629Z,5.73
2019-03-18T13:55:14.036Z,4.77
2019-03-18T13:57:42.790Z,4.93
2019-03-18T14:00:18.164Z,6.83
2019-03-18T14:02:46.577Z,5.37
2019-03-18T14:05:15.066Z,4.70
2019-03-18T14:07:43.817Z,7.90
2019-03-18T14:10:17.978Z,5.47
2019-03-18T14:12:46.942Z,7.80
2019-03-18T14:15:18.416Z,4.27
2019-03-18T14:17:46.994Z,5.47
2019-03-18T14:20:18.029Z,5.97
2019-03-18T14:22:46.457Z,4.23
2019-03-18T14:25:14.950Z,5.93
2019-03-18T14:27:44.071Z,4.90
2019-03-18T14:30:15.070Z,5.70
2019-03-18T14:32:43.470Z,2.83
2019-03-18T14:35:12.562Z,3.73
2019-03-18T14:37:40.977Z,2.90
2019-03-18T14:40:14.571Z,4.90
2019-03-18T14:42:43.448Z,3.13
2019-03-18T14:45:17.473Z,4.47
2019-03-18T14:47:45.870Z,4.80
2019-03-18T14:50:16.273Z,7.08
2019-03-18T14:52:44.979Z,6.30
2019-03-18T14:55:14.746Z,4.10
2019-03-18T14:57:43.159Z,4.50
2019-03-18T15:00:23.412Z,2.93
2019-03-18T15:02:51.810Z,5.13
2019-03-18T15:05:20.574Z,4.77
2019-03-18T15:07:49.011Z,4.70
2019-03-18T15:10:25.966Z,5.47
2019-03-18T15:12:54.540Z,3.93
2019-03-18T15:15:23.195Z,5.60
2019-03-18T15:17:51.600Z,7.07
2019-03-18T15:20:25.726Z,3.42
2019-03-18T15:22:54.167Z,5.93
2019-03-18T15:25:30.561Z,5.07
2019-03-18T15:27:59.134Z,6.43
2019-03-18T15:30:27.899Z,5.77
2019-03-18T15:32:56.304Z,4.67
2019-03-18T15:35:24.710Z,8.33
2019-03-18T15:37:53.140Z,6.30
2019-03-18T15:40:23.180Z,4.37
2019-03-18T15:42:51.586Z,4.90
2019-03-18T15:45:21.142Z,4.20
2019-03-18T15:47:49.626Z,4.70
2019-03-18T15:50:27.524Z,5.50
2019-03-18T15:52:55.931Z,4.33
2019-03-18T15:55:24.739Z,3.93
2019-03-18T15:57:53.312Z,5.47
2019-03-18T16:00:22.687Z,4.00
2019-03-18T16:02:51.466Z,4.90
2019-03-18T16:05:19.878Z,6.77
2019-03-18T16:07:48.357Z,3.80
2019-03-18T16:10:17.916Z,3.53
2019-03-18T16:12:46.373Z,5.07
2019-03-18T16:15:18.310Z,3.47
2019-03-18T16:17:46.786Z,5.27
2019-03-18T16:20:23.004Z,6.17
2019-03-18T16:22:51.507Z,5.97
2019-03-18T16:25:19.910Z,4.50
2019-03-18T16:27:48.378Z,5.40
2019-03-18T16:30:23.382Z,4.37
2019-03-18T16:32:51.786Z,4.93
2019-03-18T16:35:20.174Z,5.40
2019-03-18T16:37:48.684Z,6.67
2019-03-18T16:40:18.451Z,4.40
2019-03-18T16:42:46.923Z,4.40
2019-03-18T16:45:16.293Z,6.53
2019-03-18T16:47:44.762Z,8.27
2019-03-18T16:50:21.483Z,4.57
2019-03-18T16:52:50.265Z,5.27
2019-03-18T16:55:18.722Z,5.03
2019-03-18T16:57:47.122Z,6.27
2019-03-18T17:00:21.344Z,6.53
2019-03-18T17:02:49.759Z,5.47
2019-03-18T17:05:18.159Z,8.47
2019-03-18T17:07:46.591Z,6.37
2019-03-18T17:10:15.926Z,5.17
2019-03-18T17:12:46.140Z,8.37
2019-03-18T17:15:15.981Z,6.97
2019-03-18T17:17:44.378Z,4.87
2019-03-18T17:20:14.804Z,5.63
2019-03-18T17:22:49.350Z,6.23
2019-03-18T17:25:20.506Z,5.70
2019-03-18T17:27:48.938Z,6.83
2019-03-18T17:30:19.144Z,5.90
2019-03-18T17:32:47.854Z,6.90
2019-03-18T17:35:16.554Z,5.40
2019-03-18T17:37:45.225Z,6.33
2019-03-18T17:40:16.059Z,4.80
2019-03-18T17:42:44.714Z,5.07
2019-03-18T17:45:16.366Z,7.53
2019-03-18T17:47:44.763Z,9.63
2019-03-18T17:50:21.738Z,5.63
2019-03-18T17:53:01.701Z,4.97
2019-03-18T17:55:20.368Z,3.90
2019-03-18T17:57:48.805Z,5.57
2019-03-18T18:00:19.727Z,4.03
2019-03-18T18:02:48.118Z,5.70
2019-03-18T18:05:16.516Z,6.77
2019-03-18T18:07:45.004Z,7.37
2019-03-18T18:10:13.395Z,5.07
2019-03-18T18:12:41.795Z,4.63
2019-03-18T18:15:12.067Z,5.50
2019-03-18T18:17:40.513Z,5.60
2019-03-18T18:20:15.818Z,4.60
2019-03-18T18:22:44.374Z,5.93
2019-03-18T18:25:14.026Z,7.67
2019-03-18T18:27:42.425Z,9.30
2019-03-18T18:30:13.230Z,8.27
2019-03-18T18:32:41.683Z,8.97
2019-03-18T18:35:11.017Z,6.43
2019-03-18T18:37:39.425Z,7.07
2019-03-18T18:40:25.387Z,6.60
2019-03-18T18:42:53.820Z,5.13
2019-03-18T18:45:22.377Z,5.27
2019-03-18T18:47:50.778Z,4.17
2019-03-18T18:50:19.419Z,6.50
2019-03-18T18:52:47.987Z,4.40
2019-03-18T18:55:16.382Z,6.70
2019-03-18T18:57:44.818Z,4.90
2019-03-18T19:00:17.184Z,6.00
2019-03-18T19:02:45.577Z,6.33
2019-03-18T19:05:17.375Z,7.13
2019-03-18T19:07:46.116Z,8.97
2019-03-18T19:10:18.713Z,5.30
2019-03-18T19:12:47.142Z,9.73
2019-03-18T19:15:36.809Z,9.27
2019-03-18T19:18:08.714Z,6.73
2019-03-18T19:20:37.093Z,7.27
2019-03-18T19:23:05.695Z,7.67
2019-03-18T19:25:34.105Z,7.37
2019-03-18T19:28:03.235Z,5.97
2019-03-18T19:30:31.797Z,9.87
2019-03-18T19:33:00.534Z,10.13
2019-03-18T19:35:29.078Z,8.87
2019-03-18T19:37:57.792Z,6.77
2019-03-18T19:40:26.697Z,6.93
2019-03-18T19:42:55.253Z,7.33
2019-03-18T19:45:23.630Z,7.70
2019-03-18T19:47:53.413Z,11.50
2019-03-18T19:50:33.446Z,6.43
2019-03-18T19:53:01.979Z,10.27
2019-03-18T19:55:30.371Z,8.20
2019-03-18T19:57:58.773Z,7.30
2019-03-18T20:00:29.438Z,9.23
2019-03-18T20:02:57.890Z,8.13
2019-03-18T20:05:26.283Z,6.83
2019-03-18T20:07:55.058Z,10.40
2019-03-18T20:10:23.532Z,6.83
2019-03-18T20:12:51.950Z,7.53
2019-03-18T20:15:21.179Z,8.50
2019-03-18T20:17:49.583Z,9.47
2019-03-18T20:20:22.914Z,10.17
2019-03-18T20:22:52.472Z,9.00
2019-03-18T20:25:20.994Z,9.10
2019-03-18T20:27:49.398Z,6.47
2019-03-18T20:30:19.887Z,8.00
2019-03-18T20:32:48.280Z,8.80
2019-03-18T20:35:18.982Z,9.37
2019-03-18T20:37:47.418Z,7.43
2019-03-18T20:40:16.890Z,9.07
2019-03-18T20:42:45.457Z,9.27
2019-03-18T20:45:17.955Z,11.53
2019-03-18T20:47:46.362Z,8.23
2019-03-18T20:50:19.634Z,8.53
2019-03-18T20:52:48.294Z,7.07
2019-03-18T20:55:16.973Z,7.60
2019-03-18T20:57:45.391Z,8.27
2019-03-18T21:00:22.193Z,12.93
2019-03-18T21:02:50.670Z,8.97
2019-03-18T21:05:19.090Z,10.60
2019-03-18T21:07:47.794Z,11.03
2019-03-18T21:10:17.334Z,10.10
2019-03-18T21:12:45.744Z,12.10
2019-03-18T21:15:15.922Z,10.03
2019-03-18T21:17:44.321Z,11.47
2019-03-18T21:20:20.613Z,8.00
2019-03-18T21:22:49.154Z,8.93
2019-03-18T21:25:17.549Z,9.90
2019-03-18T21:27:45.951Z,7.30
2019-03-18T21:30:22.689Z,10.20
2019-03-18T21:32:51.130Z,11.50
2019-03-18T21:35:19.582Z,10.63
2019-03-18T21:37:48.017Z,10.30
2019-03-18T21:40:18.588Z,9.77
2019-03-18T21:42:47.005Z,9.23
2019-03-18T21:45:19.557Z,9.03
2019-03-18T21:47:48.022Z,12.13
2019-03-18T21:50:17.528Z,8.07
2019-03-18T21:52:46.553Z,8.40
2019-03-18T21:55:15.887Z,8.53
2019-03-18T21:57:44.352Z,10.07
2019-03-18T22:00:18.251Z,9.30
2019-03-18T22:02:46.651Z,11.53
2019-03-18T22:05:15.262Z,11.80
2019-03-18T22:07:43.670Z,9.60
2019-03-18T22:10:16.603Z,9.57
2019-03-18T22:12:46.091Z,8.00
2019-03-18T22:15:19.705Z,10.47
2019-03-18T22:17:48.153Z,10.00
2019-03-18T22:20:17.496Z,11.10
2019-03-18T22:22:45.962Z,13.03
2019-03-18T22:25:15.037Z,12.70
2019-03-18T22:27:43.702Z,9.53
2019-03-18T22:30:18.130Z,11.87
2019-03-18T22:32:46.973Z,10.70
2019-03-18T22:35:15.378Z,10.90
2019-03-18T22:37:43.804Z,11.60
2019-03-18T22:40:14.000Z,8.83
2019-03-18T22:42:42.684Z,10.23
2019-03-18T22:45:12.522Z,8.57
2019-03-18T22:47:40.990Z,9.50
2019-03-18T22:50:11.824Z,12.77
2019-03-18T22:52:40.218Z,8.17
2019-03-18T22:55:10.173Z,10.23
2019-03-18T22:57:39.622Z,9.87
2019-03-18T23:00:26.187Z,8.77
2019-03-18T23:02:55.120Z,10.20
2019-03-18T23:05:23.510Z,10.90
2019-03-18T23:07:51.915Z,8.27
2019-03-18T23:10:20.409Z,10.90
2019-03-18T23:12:48.830Z,9.50
2019-03-18T23:15:17.518Z,8.30
2019-03-18T23:17:45.988Z,8.10
2019-03-18T23:20:14.553Z,10.03
2019-03-18T23:22:42.991Z,13.97
2019-03-18T23:25:11.394Z,6.50
2019-03-18T23:27:41.345Z,9.43
2019-03-18T23:30:14.535Z,9.47
2019-03-18T23:32:42.955Z,9.37
2019-03-18T23:35:12.141Z,10.60
2019-03-18T23:37:41.006Z,8.70
2019-03-18T23:40:11.246Z,14.20
2019-03-18T23:42:39.645Z,10.70
2019-03-18T23:45:09.342Z,10.27
2019-03-18T23:47:37.790Z,8.70
2019-03-18T23:50:09.490Z,8.50
2019-03-18T23:52:37.981Z,9.73
2019-03-18T23:55:18.324Z,12.30
2019-03-18T23:57:41.410Z,10.83
